Time;durP1;ratioP1;P1;durP2;ratioP2;P2;SDS_P1;SDS_P2;PMS_P1;PMS_P2;Temp;Humidity;BMP_temperature;BMP_pressure;BME280_temperature;BME280_humidity;BME280_pressure;Samples;Min_cycle;Max_cycle;Signal;HPM_P1;HPM_P2
2021/05/09 00:02:25;;;;;;;2.47;1.60;;;;;;;15.39;35.02;100453.56;3527159;40;20055;-74
2021/05/09 00:04:53;;;;;;;2.25;1.25;;;;;;;15.35;35.48;100442.03;3532123;40;20084;-74
2021/05/09 00:07:20;;;;;;;2.80;1.50;;;;;;;15.35;35.13;100443.91;3532642;40;20054;-74
2021/05/09 00:09:47;;;;;;;2.97;1.60;;;;;;;15.32;35.11;100428.56;3537200;40;20035;-74
2021/05/09 00:12:15;;;;;;;3.28;1.75;;;;;;;15.32;35.06;100427.72;3530261;40;20032;-74
2021/05/09 00:14:42;;;;;;;2.75;1.52;;;;;;;15.28;35.30;100429.97;3533087;40;20119;-73
2021/05/09 00:17:10;;;;;;;3.10;1.73;;;;;;;15.27;35.25;100435.66;3529512;40;20404;-73
2021/05/09 00:19:38;;;;;;;3.03;1.50;;;;;;;15.25;35.14;100424.78;3531800;40;20054;-74
2021/05/09 00:22:06;;;;;;;2.67;1.40;;;;;;;15.21;35.10;100428.94;3531679;40;20059;-74
2021/05/09 00:25:23;;;;;;;2.53;1.55;;;;;;;15.17;35.50;100427.56;3527878;40;20061;-74
2021/05/09 00:27:51;;;;;;;3.03;1.35;;;;;;;15.12;35.50;100420.84;3532993;40;20146;-73
2021/05/09 00:30:19;;;;;;;2.13;1.40;;;;;;;15.13;35.22;100428.94;3542241;40;20359;-74
2021/05/09 00:32:49;;;;;;;2.20;1.40;;;;;;;15.09;35.26;100426.69;3534733;40;20047;-74
2021/05/09 00:35:17;;;;;;;2.15;1.38;;;;;;;15.09;35.21;100418.44;3534292;40;20067;-74
2021/05/09 00:37:45;;;;;;;2.30;1.33;;;;;;;15.06;35.35;100420.50;3534203;40;20055;-74
2021/05/09 00:40:13;;;;;;;2.80;1.65;;;;;;;15.04;35.00;100419.81;3537456;40;20055;-74
2021/05/09 00:42:40;;;;;;;2.65;1.30;;;;;;;15.01;35.18;100409.13;3535014;40;20051;-74
2021/05/09 00:45:08;;;;;;;2.97;1.55;;;;;;;14.99;35.44;100413.94;3539466;40;20126;-75
2021/05/09 00:47:36;;;;;;;2.83;1.58;;;;;;;14.97;35.03;100413.28;3529103;40;20059;-74
2021/05/09 00:50:04;;;;;;;2.83;1.40;;;;;;;14.96;35.38;100408.81;3530804;40;20062;-74
2021/05/09 00:52:38;;;;;;;2.47;1.50;;;;;;;14.96;35.81;100402.44;3529662;40;20031;-74
2021/05/09 00:55:08;;;;;;;2.83;1.58;;;;;;;14.91;35.30;100410.34;3533919;40;20058;-74
2021/05/09 00:57:36;;;;;;;2.05;1.48;;;;;;;14.90;35.08;100403.13;3536987;40;20054;-74
2021/05/09 01:00:06;;;;;;;2.40;1.30;;;;;;;14.87;35.46;100400.72;3528383;40;20059;-74
2021/05/09 01:02:35;;;;;;;2.28;1.30;;;;;;;14.84;35.47;100398.28;3531950;40;20062;-75
2021/05/09 01:05:04;;;;;;;2.33;1.60;;;;;;;14.82;35.18;100392.13;3536794;40;20092;-74
2021/05/09 01:07:34;;;;;;;2.00;1.40;;;;;;;14.80;35.83;100392.28;3529667;40;20059;-74
2021/05/09 01:10:05;;;;;;;2.45;1.45;;;;;;;14.78;35.59;100393.47;3529621;40;20055;-74
2021/05/09 01:12:33;;;;;;;2.30;1.50;;;;;;;14.73;35.25;100393.09;3529305;40;20353;-74
2021/05/09 01:15:05;;;;;;;2.13;1.20;;;;;;;14.71;35.40;100387.75;3531174;40;20055;-75
2021/05/09 01:17:34;;;;;;;2.05;1.30;;;;;;;14.67;35.43;100387.22;3531206;40;20070;-74
2021/05/09 01:20:06;;;;;;;2.22;1.45;;;;;;;14.68;35.59;100385.34;3534405;40;20062;-74
2021/05/09 01:22:33;;;;;;;2.27;1.50;;;;;;;14.61;35.48;100376.03;3529651;40;20086;-74
2021/05/09 01:25:01;;;;;;;2.40;1.52;;;;;;;14.61;35.66;100371.41;3533931;40;20054;-74
2021/05/09 01:27:30;;;;;;;2.38;1.50;;;;;;;14.60;35.65;100366.94;3519262;40;20051;-74
2021/05/09 01:29:57;;;;;;;2.63;1.50;;;;;;;14.56;35.87;100362.81;3532735;40;20062;-74
2021/05/09 01:32:25;;;;;;;2.72;1.60;;;;;;;14.55;35.56;100369.34;3524030;40;20099;-74
2021/05/09 01:34:53;;;;;;;2.92;1.50;;;;;;;14.54;35.41;100358.50;3528646;40;20094;-74
2021/05/09 01:37:22;;;;;;;2.38;1.52;;;;;;;14.54;35.64;100355.75;3541182;40;20047;-74
2021/05/09 01:39:50;;;;;;;2.08;1.48;;;;;;;14.50;35.84;100351.59;3527887;40;20047;-75
2021/05/09 01:42:17;;;;;;;1.73;1.30;;;;;;;14.48;36.03;100354.53;3528863;40;20051;-75
2021/05/09 01:44:48;;;;;;;2.55;1.55;;;;;;;14.49;35.86;100352.66;3529307;40;20062;-75
2021/05/09 01:47:16;;;;;;;3.08;1.77;;;;;;;14.44;35.54;100352.28;3531609;40;20127;-74
2021/05/09 01:49:43;;;;;;;3.42;1.75;;;;;;;14.42;35.99;100340.56;3528071;40;20055;-74
2021/05/09 01:52:10;;;;;;;3.40;1.58;;;;;;;14.41;35.81;100347.09;3530082;40;20031;-74
2021/05/09 01:54:39;;;;;;;2.67;1.55;;;;;;;14.40;35.75;100337.16;3529350;40;20397;-74
2021/05/09 01:57:06;;;;;;;2.80;1.50;;;;;;;14.37;35.52;100323.72;3537111;40;20067;-74
2021/05/09 01:59:38;;;;;;;2.67;1.55;;;;;;;14.35;35.97;100337.66;3532399;40;20047;-74
2021/05/09 02:02:06;;;;;;;3.13;1.60;;;;;;;14.32;35.89;100336.09;3540737;40;20062;-74
2021/05/09 02:04:38;;;;;;;2.40;1.48;;;;;;;14.29;35.71;100333.69;3534665;40;20383;-74
2021/05/09 02:07:10;;;;;;;2.80;1.60;;;;;;;14.26;35.87;100323.03;3523487;40;20054;-75
2021/05/09 02:09:41;;;;;;;3.47;1.60;;;;;;;14.24;35.82;100322.31;3534159;40;20063;-75
2021/05/09 02:12:09;;;;;;;3.13;1.60;;;;;;;14.22;35.78;100326.28;3530334;40;20328;-74
2021/05/09 02:14:45;;;;;;;2.58;1.58;;;;;;;14.18;36.14;100323.00;3529528;40;20347;-74
2021/05/09 02:17:12;;;;;;;2.63;1.33;;;;;;;14.17;35.83;100314.91;3527796;40;20313;-74
2021/05/09 02:19:47;;;;;;;3.63;1.35;;;;;;;14.13;36.14;100311.66;3527035;40;20070;-74
2021/05/09 02:22:19;;;;;;;3.03;1.60;;;;;;;14.10;35.96;100313.88;3539564;40;20073;-74
2021/05/09 02:24:48;;;;;;;3.60;1.58;;;;;;;14.11;36.17;100312.84;3522753;40;20514;-74
2021/05/09 02:27:15;;;;;;;3.85;1.60;;;;;;;14.08;35.89;100310.41;3531758;40;20074;-75
2021/05/09 02:29:42;;;;;;;2.50;1.42;;;;;;;14.06;36.02;100305.13;3536248;40;20062;-74
2021/05/09 02:32:11;;;;;;;2.05;1.40;;;;;;;14.03;36.05;100291.69;3531707;40;20055;-74
2021/05/09 02:34:48;;;;;;;2.50;1.48;;;;;;;14.01;36.13;100301.13;3529980;40;20145;-74
2021/05/09 02:37:16;;;;;;;2.35;1.60;;;;;;;14.00;36.09;100291.16;3538916;40;20524;-75
2021/05/09 02:39:45;;;;;;;2.67;1.60;;;;;;;13.97;36.09;100297.00;3519429;40;20115;-75
2021/05/09 02:42:15;;;;;;;2.50;1.58;;;;;;;13.96;36.01;100296.16;3534216;40;20087;-74
2021/05/09 02:44:43;;;;;;;2.10;1.42;;;;;;;13.93;36.20;100286.34;3536247;40;20038;-74
2021/05/09 02:47:27;;;;;;;3.45;1.50;;;;;;;13.92;36.78;100290.09;3528014;40;20325;-74
2021/05/09 02:49:58;;;;;;;3.10;1.58;;;;;;;13.89;36.53;100284.97;3527602;40;20063;-74
2021/05/09 02:52:25;;;;;;;2.53;1.50;;;;;;;13.87;36.47;100281.50;3538252;40;20439;-74
2021/05/09 02:54:55;;;;;;;2.17;1.45;;;;;;;13.85;36.58;100277.16;3528018;40;20063;-74
2021/05/09 02:57:23;;;;;;;2.70;1.58;;;;;;;13.86;36.50;100284.41;3542612;40;20046;-74
2021/05/09 02:59:50;;;;;;;2.72;1.50;;;;;;;13.82;36.42;100281.13;3530435;40;20055;-74
2021/05/09 03:02:18;;;;;;;2.50;1.50;;;;;;;13.81;36.76;100278.56;3542262;40;20596;-74
2021/05/09 03:04:45;;;;;;;2.80;1.50;;;;;;;13.79;36.64;100275.97;3542249;40;20066;-74
2021/05/09 03:07:13;;;;;;;3.22;1.42;;;;;;;13.78;36.87;100277.00;3537323;40;20062;-74
2021/05/09 03:09:41;;;;;;;2.15;1.30;;;;;;;13.78;36.99;100281.63;3532494;40;20062;-74
2021/05/09 03:12:09;;;;;;;2.58;1.30;;;;;;;13.77;36.90;100274.41;3542889;40;20471;-72
2021/05/09 03:14:37;;;;;;;2.30;1.48;;;;;;;13.78;37.04;100273.38;3532820;40;20050;-74
2021/05/09 03:17:05;;;;;;;2.92;1.70;;;;;;;13.75;36.75;100277.31;3526101;40;20061;-74
2021/05/09 03:19:33;;;;;;;2.47;1.40;;;;;;;13.75;37.30;100282.81;3528105;40;20058;-74
2021/05/09 03:22:00;;;;;;;2.00;1.20;;;;;;;13.74;37.12;100275.63;3520285;40;20066;-74
2021/05/09 03:24:28;;;;;;;2.10;1.20;;;;;;;13.73;37.34;100284.03;3529502;40;20051;-74
2021/05/09 03:26:56;;;;;;;2.08;1.45;;;;;;;13.73;37.29;100282.13;3541381;40;20363;-74
2021/05/09 03:29:23;;;;;;;2.42;1.35;;;;;;;13.72;37.05;100269.41;3538202;40;20414;-74
2021/05/09 03:31:51;;;;;;;2.55;1.50;;;;;;;13.74;37.31;100274.75;3530109;40;20047;-74
2021/05/09 03:34:19;;;;;;;2.13;1.25;;;;;;;13.71;37.39;100256.69;3541658;40;20053;-74
2021/05/09 03:36:46;;;;;;;2.78;1.40;;;;;;;13.72;37.53;100257.56;3529823;40;20051;-74
2021/05/09 03:39:13;;;;;;;2.28;1.45;;;;;;;13.72;37.61;100255.69;3535389;40;20134;-74
2021/05/09 03:41:41;;;;;;;3.05;1.52;;;;;;;13.70;37.10;100243.97;3527591;40;20055;-74
2021/05/09 03:44:09;;;;;;;1.83;1.20;;;;;;;13.70;37.58;100251.38;3528541;40;20039;-74
2021/05/09 03:46:36;;;;;;;2.60;1.40;;;;;;;13.71;37.41;100253.09;3528068;40;20059;-74
2021/05/09 03:49:05;;;;;;;2.00;1.40;;;;;;;13.71;37.79;100264.94;3528856;40;20049;-74
2021/05/09 03:51:32;;;;;;;1.90;1.40;;;;;;;13.68;37.66;100265.25;3529770;40;20392;-74
2021/05/09 03:53:59;;;;;;;2.92;1.50;;;;;;;13.68;37.81;100259.78;3533351;40;20054;-74
2021/05/09 03:56:27;;;;;;;2.28;1.45;;;;;;;13.68;37.35;100261.66;3538132;40;20035;-74
2021/05/09 03:58:55;;;;;;;3.00;1.42;;;;;;;13.68;37.69;100253.41;3530001;40;20125;-75
2021/05/09 04:01:22;;;;;;;1.77;1.15;;;;;;;13.67;37.51;100263.53;3528588;40;20176;-74
2021/05/09 04:03:50;;;;;;;1.75;1.20;;;;;;;13.68;37.63;100267.16;3540041;40;20031;-74
2021/05/09 04:06:18;;;;;;;1.80;1.20;;;;;;;13.70;37.94;100256.84;3532091;40;20058;-74
2021/05/09 04:08:45;;;;;;;2.22;1.15;;;;;;;13.68;37.55;100258.91;3529238;40;20542;-74
2021/05/09 04:11:13;;;;;;;2.42;1.40;;;;;;;13.68;37.87;100259.78;3533405;40;20051;-74
2021/05/09 04:13:50;;;;;;;3.00;1.30;;;;;;;13.69;37.93;100266.13;3529065;40;20320;-73
2021/05/09 04:16:17;;;;;;;2.85;1.20;;;;;;;13.68;37.79;100254.28;3529970;40;20047;-74
2021/05/09 04:18:45;;;;;;;1.80;1.20;;;;;;;13.69;37.76;100258.75;3528166;40;20400;-74
2021/05/09 04:21:12;;;;;;;2.33;1.17;;;;;;;13.71;37.87;100261.34;3527549;40;20066;-74
2021/05/09 04:23:40;;;;;;;2.03;1.30;;;;;;;13.73;37.85;100262.03;3537330;40;20058;-74
2021/05/09 04:26:07;;;;;;;1.92;1.10;;;;;;;13.72;37.79;100257.56;3527948;40;20066;-74
2021/05/09 04:28:35;;;;;;;2.08;1.42;;;;;;;13.73;37.79;100257.41;3527723;40;20043;-74
2021/05/09 04:31:02;;;;;;;2.10;1.20;;;;;;;13.74;37.58;100252.75;3534246;40;20168;-74
2021/05/09 04:33:30;;;;;;;1.98;1.20;;;;;;;13.74;37.54;100250.88;3529744;40;20106;-74
2021/05/09 04:35:57;;;;;;;2.03;1.30;;;;;;;13.74;38.17;100242.63;3537480;40;20046;-74
2021/05/09 04:38:24;;;;;;;2.95;1.50;;;;;;;13.75;37.84;100241.56;3528475;40;20051;-73
2021/05/09 04:40:52;;;;;;;2.17;1.20;;;;;;;13.76;38.00;100240.56;3532676;40;20063;-74
2021/05/09 04:43:21;;;;;;;2.55;1.17;;;;;;;13.77;37.74;100241.41;3525944;40;20055;-74
2021/05/09 04:45:50;;;;;;;1.27;1.00;;;;;;;13.78;38.13;100237.63;3530738;40;20063;-74
2021/05/09 04:48:18;;;;;;;3.08;1.30;;;;;;;13.79;37.79;100240.22;3527323;40;20402;-74
2021/05/09 04:50:46;;;;;;;2.40;1.30;;;;;;;13.81;37.91;100240.94;3532803;40;20055;-73
2021/05/09 04:53:27;;;;;;;2.10;1.08;;;;;;;13.87;38.43;100233.91;3539490;40;20039;-74
2021/05/09 04:55:57;;;;;;;3.60;1.50;;;;;;;13.87;38.16;100228.41;3531955;40;20091;-74
2021/05/09 04:58:25;;;;;;;2.60;1.40;;;;;;;13.89;37.90;100231.88;3530534;40;20059;-74
2021/05/09 05:00:53;;;;;;;2.10;1.40;;;;;;;13.93;38.12;100234.09;3522823;40;20070;-75
2021/05/09 05:03:21;;;;;;;2.67;1.42;;;;;;;14.01;38.76;100235.13;3529898;40;20067;-74
2021/05/09 05:05:49;;;;;;;2.22;1.38;;;;;;;14.08;38.43;100233.41;3530694;40;20056;-74
2021/05/09 05:08:16;;;;;;;1.58;1.08;;;;;;;14.17;38.73;100227.75;3534070;40;20059;-74
2021/05/09 05:10:45;;;;;;;3.08;1.45;;;;;;;14.32;38.98;100234.28;3533599;40;20102;-74
2021/05/09 05:13:19;;;;;;;2.03;1.20;;;;;;;14.51;38.57;100237.72;3535643;40;20081;-73
2021/05/09 05:15:49;;;;;;;3.33;1.30;;;;;;;14.71;39.45;100238.22;3530547;40;20070;-74
2021/05/09 05:18:17;;;;;;;2.10;1.20;;;;;;;15.06;40.10;100232.34;3527513;40;20070;-74
2021/05/09 05:20:44;;;;;;;2.10;1.30;;;;;;;15.51;40.32;100236.28;3531789;40;20425;-74
2021/05/09 05:23:14;;;;;;;2.38;1.23;;;;;;;16.02;39.74;100235.69;3533077;40;20063;-74
2021/05/09 05:25:41;;;;;;;1.98;1.33;;;;;;;16.53;39.23;100230.47;3530031;40;20339;-74
2021/05/09 05:28:09;;;;;;;2.20;1.25;;;;;;;16.96;37.80;100239.03;3529578;40;20047;-73
2021/05/09 05:30:38;;;;;;;1.52;1.10;;;;;;;17.36;36.71;100240.50;3529724;40;20051;-74
2021/05/09 05:33:06;;;;;;;1.95;1.17;;;;;;;17.61;36.31;100230.84;3531839;40;20062;-74
2021/05/09 05:35:35;;;;;;;1.95;1.13;;;;;;;17.81;35.39;100228.31;3532877;40;20467;-74
2021/05/09 05:38:03;;;;;;;2.25;1.20;;;;;;;17.94;35.16;100228.47;3529693;40;20066;-75
2021/05/09 05:40:30;;;;;;;1.85;1.20;;;;;;;18.01;34.40;100223.88;3534064;40;20046;-74
2021/05/09 05:42:58;;;;;;;2.10;1.30;;;;;;;18.06;34.43;100229.69;3535892;40;20408;-74
2021/05/09 05:45:25;;;;;;;2.33;1.30;;;;;;;18.08;33.90;100222.06;3534167;40;20066;-74
2021/05/09 05:47:53;;;;;;;1.83;1.20;;;;;;;18.11;33.82;100220.81;3529530;40;20055;-74
2021/05/09 05:50:20;;;;;;;1.98;1.20;;;;;;;18.12;33.67;100220.59;3530236;40;20065;-74
2021/05/09 05:52:54;;;;;;;1.67;1.10;;;;;;;18.15;34.11;100222.13;3530720;40;20312;-74
2021/05/09 05:55:21;;;;;;;1.52;1.10;;;;;;;18.18;33.84;100213.44;3532216;40;20055;-74
2021/05/09 05:57:49;;;;;;;2.20;1.27;;;;;;;18.21;33.46;100208.34;3532358;40;20051;-74
2021/05/09 06:00:17;;;;;;;2.80;1.13;;;;;;;18.26;33.90;100210.53;3527215;40;20383;-74
2021/05/09 06:02:44;;;;;;;2.85;1.25;;;;;;;18.28;33.96;100205.63;3532509;40;20055;-74
2021/05/09 06:05:14;;;;;;;2.28;1.17;;;;;;;18.36;34.00;100209.13;3530458;40;20074;-73
2021/05/09 06:07:41;;;;;;;2.10;1.30;;;;;;;18.47;33.95;100210.50;3526924;40;20408;-74
2021/05/09 06:10:09;;;;;;;2.67;1.40;;;;;;;18.68;34.62;100213.25;3527912;40;20047;-74
2021/05/09 06:12:37;;;;;;;2.25;1.20;;;;;;;18.92;34.71;100211.97;3525494;40;20393;-74
2021/05/09 06:15:05;;;;;;;2.13;1.10;;;;;;;19.23;34.40;100205.09;3529440;40;20064;-74
2021/05/09 06:17:33;;;;;;;1.17;0.95;;;;;;;19.59;34.15;100208.53;3511709;40;20073;-74
2021/05/09 06:20:00;;;;;;;2.75;1.40;;;;;;;20.12;34.85;100200.34;3529367;40;20055;-71
2021/05/09 06:22:29;;;;;;;1.83;1.17;;;;;;;20.78;34.48;100192.06;3529784;40;20054;-70
2021/05/09 06:24:57;;;;;;;1.77;1.20;;;;;;;21.43;33.92;100191.09;3529879;40;20109;-71
2021/05/09 06:27:24;;;;;;;1.98;1.20;;;;;;;22.09;32.25;100200.00;3530506;40;20054;-73
2021/05/09 06:29:51;;;;;;;1.98;1.10;;;;;;;22.81;32.33;100189.38;3531745;40;20050;-72
2021/05/09 06:32:19;;;;;;;2.30;1.20;;;;;;;23.58;31.21;100185.16;3528691;40;20408;-72
2021/05/09 06:34:46;;;;;;;2.70;1.40;;;;;;;24.38;31.13;100192.19;3533459;40;20356;-72
2021/05/09 06:37:14;;;;;;;1.63;1.17;;;;;;;25.18;29.73;100186.09;3532267;40;20091;-72
2021/05/09 06:39:43;;;;;;;1.50;1.00;;;;;;;25.92;28.57;100190.00;3535082;40;20128;-71
2021/05/09 06:42:10;;;;;;;1.75;1.08;;;;;;;26.58;27.58;100186.50;3529692;40;20051;-73
2021/05/09 06:44:43;;;;;;;2.00;1.20;;;;;;;27.23;25.65;100180.25;3532763;40;20308;-72
2021/05/09 06:47:11;;;;;;;2.08;1.10;;;;;;;27.70;25.42;100172.19;3538342;40;20080;-72
2021/05/09 06:49:41;;;;;;;1.70;1.02;;;;;;;28.01;24.70;100176.25;3528643;40;20091;-71
2021/05/09 06:52:09;;;;;;;1.50;1.00;;;;;;;28.15;24.05;100176.69;3537253;40;20042;-73
2021/05/09 06:54:36;;;;;;;2.72;1.02;;;;;;;28.15;23.48;100171.06;3533627;40;20059;-72
2021/05/09 06:57:05;;;;;;;1.73;1.20;;;;;;;28.11;23.03;100164.25;3529869;40;20154;-72
2021/05/09 06:59:33;;;;;;;1.73;0.95;;;;;;;27.93;22.54;100157.00;3531735;40;20074;-72
2021/05/09 07:02:00;;;;;;;2.20;1.00;;;;;;;27.75;22.41;100148.94;3531837;40;20043;-72
2021/05/09 07:04:28;;;;;;;2.42;1.30;;;;;;;27.54;22.37;100147.00;3529771;40;20932;-73
2021/05/09 07:06:55;;;;;;;1.70;1.02;;;;;;;27.31;21.97;100143.31;3528621;40;20066;-72
2021/05/09 07:09:22;;;;;;;2.03;1.10;;;;;;;27.07;22.14;100147.47;3527469;40;20087;-73
2021/05/09 07:11:50;;;;;;;3.05;1.10;;;;;;;26.85;22.08;100149.31;3532571;40;20129;-72
2021/05/09 07:14:18;;;;;;;1.98;1.10;;;;;;;26.62;21.86;100145.59;3528992;40;20051;-71
2021/05/09 07:16:45;;;;;;;2.17;1.00;;;;;;;26.37;22.06;100147.13;3530554;40;20122;-71
2021/05/09 07:19:14;;;;;;;1.98;1.13;;;;;;;26.15;22.28;100139.44;3527504;40;20668;-72
2021/05/09 07:21:44;;;;;;;2.67;1.30;;;;;;;25.93;22.49;100141.25;3528820;40;20058;-72
2021/05/09 07:24:12;;;;;;;2.90;1.30;;;;;;;25.72;22.25;100137.16;3532365;40;20138;-70
2021/05/09 07:26:40;;;;;;;2.00;1.10;;;;;;;25.52;22.36;100131.16;3535616;40;20409;-71
2021/05/09 07:29:07;;;;;;;2.83;1.27;;;;;;;25.33;22.39;100135.22;3529350;40;20070;-72
2021/05/09 07:31:40;;;;;;;1.45;1.02;;;;;;;25.14;22.66;100123.31;3529690;40;20047;-73
2021/05/09 07:34:08;;;;;;;2.53;1.30;;;;;;;24.93;23.12;100130.41;3531525;40;20086;-72
2021/05/09 07:36:38;;;;;;;1.95;1.10;;;;;;;24.78;23.37;100128.06;3526251;40;20317;-73
2021/05/09 07:39:06;;;;;;;1.83;1.10;;;;;;;24.65;23.32;100121.84;3527468;40;20134;-73
2021/05/09 07:41:34;;;;;;;2.15;1.17;;;;;;;24.52;23.47;100124.91;3532051;40;20063;-73
2021/05/09 07:44:03;;;;;;;2.60;1.20;;;;;;;24.40;23.39;100122.94;3533740;40;20168;-73
2021/05/09 07:46:31;;;;;;;2.20;1.17;;;;;;;24.30;23.57;100122.66;3526584;40;20338;-73
2021/05/09 07:48:59;;;;;;;1.77;1.02;;;;;;;24.19;23.75;100112.34;3529316;40;20051;-73
2021/05/09 07:51:26;;;;;;;2.08;1.17;;;;;;;24.05;23.94;100106.06;3522811;40;20059;-73
2021/05/09 07:53:53;;;;;;;1.88;1.20;;;;;;;23.96;24.25;100113.06;3526876;40;20122;-73
2021/05/09 07:56:21;;;;;;;1.80;1.15;;;;;;;23.89;24.29;100108.69;3537176;40;20062;-73
2021/05/09 07:58:48;;;;;;;2.95;1.27;;;;;;;23.80;24.30;100110.09;3532725;40;20344;-73
2021/05/09 08:01:16;;;;;;;2.17;1.10;;;;;;;23.75;24.65;100102.44;3531324;40;20051;-73
2021/05/09 08:03:43;;;;;;;2.45;1.25;;;;;;;23.69;24.57;100090.28;3531818;40;20053;-73
2021/05/09 08:06:12;;;;;;;1.92;1.13;;;;;;;23.67;24.72;100086.03;3527680;40;20067;-73
2021/05/09 08:08:39;;;;;;;2.80;1.50;;;;;;;23.64;25.05;100073.38;3529008;40;20048;-73
2021/05/09 08:11:06;;;;;;;3.28;1.25;;;;;;;23.63;25.34;100068.88;3534138;40;20065;-73
2021/05/09 08:13:33;;;;;;;1.92;1.10;;;;;;;23.64;25.26;100069.75;3533552;40;20379;-72
2021/05/09 08:16:01;;;;;;;2.17;1.00;;;;;;;23.63;25.57;100056.91;3531007;40;20051;-72
2021/05/09 08:18:29;;;;;;;2.42;1.30;;;;;;;23.64;25.57;100052.97;3528932;40;20122;-73
2021/05/09 08:20:57;;;;;;;2.67;1.40;;;;;;;23.63;25.61;100052.13;3531845;40;20059;-72
2021/05/09 08:23:25;;;;;;;1.95;1.20;;;;;;;23.66;25.14;100039.66;3531293;40;20431;-73
2021/05/09 08:25:53;;;;;;;1.60;1.00;;;;;;;23.65;25.41;100032.34;3532344;40;20056;-73
2021/05/09 08:28:21;;;;;;;1.75;1.17;;;;;;;23.66;25.39;100025.69;3530276;40;20039;-72
2021/05/09 08:30:48;;;;;;;2.08;1.30;;;;;;;23.67;25.67;100025.44;3530329;40;20051;-72
2021/05/09 08:33:16;;;;;;;2.78;1.30;;;;;;;23.68;25.49;100023.50;3532404;40;20129;-72
2021/05/09 08:35:43;;;;;;;3.80;1.40;;;;;;;23.68;25.45;100020.72;3531315;40;20051;-72
2021/05/09 08:38:10;;;;;;;2.15;1.23;;;;;;;23.68;25.54;100007.63;3540398;40;20396;-73
2021/05/09 08:40:40;;;;;;;2.97;1.45;;;;;;;23.72;25.30;100009.91;3527434;40;20087;-73
2021/05/09 08:43:07;;;;;;;2.60;1.20;;;;;;;23.69;25.27;100012.13;3539022;40;20061;-72
2021/05/09 08:45:34;;;;;;;3.05;1.30;;;;;;;23.71;25.61;100008.22;3531333;40;20141;-72
2021/05/09 08:48:02;;;;;;;2.17;1.20;;;;;;;23.72;25.52;100002.38;3529777;40;20150;-73
2021/05/09 08:50:31;;;;;;;1.85;1.23;;;;;;;23.72;25.31;100007.97;3533025;40;20048;-73
2021/05/09 08:53:00;;;;;;;2.20;1.23;;;;;;;23.76;25.40;100008.34;3530125;40;20078;-72
2021/05/09 08:55:28;;;;;;;2.13;1.17;;;;;;;23.74;25.26;100003.00;3525669;40;20054;-73
2021/05/09 08:57:57;;;;;;;1.90;1.20;;;;;;;23.75;25.38;99995.47;3527585;40;20335;-72
2021/05/09 09:00:26;;;;;;;2.35;1.35;;;;;;;23.69;25.40;99989.78;3522754;40;20348;-72
2021/05/09 09:02:59;;;;;;;2.10;1.30;;;;;;;23.64;25.71;99981.25;3526204;40;20114;-72
2021/05/09 09:05:38;;;;;;;2.13;1.20;;;;;;;23.63;25.32;99978.72;3523813;40;20053;-72
2021/05/09 09:08:06;;;;;;;2.05;1.30;;;;;;;23.57;25.35;99960.09;3523194;40;20432;-72
2021/05/09 09:10:36;;;;;;;2.13;1.30;;;;;;;23.60;25.64;99962.44;3522979;40;20055;-72
2021/05/09 09:13:19;;;;;;;2.83;1.40;;;;;;;23.58;25.71;99959.03;3523961;40;20047;-72
2021/05/09 09:15:52;;;;;;;2.05;1.40;;;;;;;23.56;25.82;99953.66;3522927;40;20087;-72
2021/05/09 09:18:31;;;;;;;2.35;1.60;;;;;;;23.60;26.02;99948.47;3521924;40;20332;-72
2021/05/09 09:21:18;;;;;;;2.03;1.50;;;;;;;23.57;26.08;99958.16;3524168;40;20058;-72
2021/05/09 09:23:47;;;;;;;1.75;1.20;;;;;;;23.61;25.90;99939.88;3523510;40;20047;-72
2021/05/09 09:26:26;;;;;;;2.80;1.40;;;;;;;23.69;26.22;99938.66;3523881;40;20512;-72
2021/05/09 09:28:54;;;;;;;2.47;1.52;;;;;;;23.68;26.08;99936.94;3523171;40;20633;-72
2021/05/09 09:31:39;;;;;;;3.13;1.42;;;;;;;23.72;26.03;99940.09;3522073;40;20054;-72
2021/05/09 09:34:07;;;;;;;2.03;1.48;;;;;;;23.74;25.91;99921.16;3524175;40;20058;-72
2021/05/09 09:36:35;;;;;;;2.58;1.30;;;;;;;23.76;25.92;99914.25;3524269;40;20043;-72
2021/05/09 09:39:04;;;;;;;2.33;1.35;;;;;;;23.80;25.96;99920.19;3522805;40;20078;-72
2021/05/09 09:41:32;;;;;;;2.40;1.45;;;;;;;23.82;25.81;99904.91;3523602;40;20043;-72
2021/05/09 09:44:06;;;;;;;2.97;1.40;;;;;;;23.90;26.02;99926.88;3522803;40;20050;-72
2021/05/09 09:46:36;;;;;;;1.88;1.33;;;;;;;23.92;25.89;99910.75;3523617;40;20137;-73
2021/05/09 09:49:26;;;;;;;2.58;1.60;;;;;;;23.97;25.74;99910.00;3529134;40;20055;-72
2021/05/09 09:51:56;;;;;;;1.83;1.25;;;;;;;23.98;25.75;99909.75;3541290;40;20051;-72
2021/05/09 09:54:35;;;;;;;4.03;1.52;;;;;;;24.03;25.81;99903.47;3526989;40;20685;-72
2021/05/09 09:57:05;;;;;;;2.05;1.35;;;;;;;24.05;25.84;99896.50;3525401;40;20324;-72
2021/05/09 09:59:34;;;;;;;2.28;1.40;;;;;;;24.08;25.66;99900.81;3519948;40;20039;-73
2021/05/09 10:02:07;;;;;;;4.63;1.80;;;;;;;24.11;25.51;99903.13;3522576;40;20145;-73
2021/05/09 10:04:35;;;;;;;2.45;1.55;;;;;;;24.13;25.72;99889.72;3522921;40;20420;-72
2021/05/09 10:07:07;;;;;;;3.67;1.60;;;;;;;24.17;25.58;99895.69;3524182;40;20078;-72
2021/05/09 10:09:36;;;;;;;2.58;1.27;;;;;;;24.14;25.34;99885.84;3524467;40;20059;-72
2021/05/09 10:12:04;;;;;;;2.60;1.42;;;;;;;24.20;26.05;99887.69;3524198;40;20449;-72
2021/05/09 10:14:46;;;;;;;2.65;1.60;;;;;;;24.26;25.86;99885.84;3522957;40;20428;-72
2021/05/09 10:17:14;;;;;;;2.00;1.20;;;;;;;24.36;25.78;99883.28;3522208;40;20126;-73
2021/05/09 10:19:44;;;;;;;2.53;1.45;;;;;;;24.45;25.56;99884.59;3522751;40;20072;-73
2021/05/09 10:22:25;;;;;;;3.25;1.50;;;;;;;24.52;25.62;99870.47;3523322;40;20058;-73
2021/05/09 10:24:54;;;;;;;2.58;1.40;;;;;;;24.57;25.81;99870.56;3525805;40;20062;-73
2021/05/09 10:27:34;;;;;;;2.80;1.50;;;;;;;24.65;25.45;99870.16;3522362;40;20051;-73
2021/05/09 10:30:04;;;;;;;2.65;1.38;;;;;;;24.69;25.33;99861.06;3522971;40;20308;-73
2021/05/09 10:32:51;;;;;;;3.63;1.50;;;;;;;24.78;25.40;99850.34;3524168;40;20063;-73
2021/05/09 10:35:52;;;;;;;2.88;1.40;;;;;;;24.81;25.05;99847.03;3528106;40;20050;-72
2021/05/09 10:38:20;;;;;;;2.65;1.58;;;;;;;24.88;25.26;99847.72;3525813;40;20058;-72
2021/05/09 10:40:47;;;;;;;2.65;1.48;;;;;;;24.97;25.21;99842.56;3530586;40;20054;-73
2021/05/09 10:43:31;;;;;;;1.85;1.23;;;;;;;25.02;24.98;99851.91;3532790;40;20058;-72
2021/05/09 10:45:59;;;;;;;2.40;1.42;;;;;;;25.07;24.87;99838.00;3531756;40;20054;-72
2021/05/09 10:48:30;;;;;;;3.13;1.50;;;;;;;25.09;24.81;99830.22;3527670;40;20067;-72
2021/05/09 10:51:29;;;;;;;3.80;1.40;;;;;;;25.10;24.95;99822.66;3529494;40;20319;-73
2021/05/09 10:53:57;;;;;;;3.20;1.48;;;;;;;25.20;24.73;99829.25;3518035;40;20055;-72
2021/05/09 10:56:32;;;;;;;;;;;;;;;24.95;25.65;99834.41;3522488;40;20073;-72
2021/05/09 10:59:00;;;;;;;2.90;1.30;;;;;;;25.22;24.63;99837.41;3522179;40;19941;-71
2021/05/09 11:01:31;;;;;;;2.90;1.50;;;;;;;25.31;24.58;99833.13;3521234;40;20079;-72
2021/05/09 11:04:01;;;;;;;3.43;1.67;;;;;;;25.32;24.41;99825.59;3523073;40;20427;-73
2021/05/09 11:06:47;;;;;;;2.55;1.35;;;;;;;25.35;24.38;99820.34;3532851;40;20153;-71
2021/05/09 11:09:16;;;;;;;2.40;1.40;;;;;;;25.37;24.50;99822.84;3521477;40;20058;-72
2021/05/09 11:12:00;;;;;;;2.75;1.40;;;;;;;25.43;24.58;99819.91;3524126;40;20562;-73
2021/05/09 11:14:32;;;;;;;2.80;1.50;;;;;;;25.47;24.41;99818.28;3525109;40;20051;-72
2021/05/09 11:17:08;;;;;;;2.77;1.40;;;;;;;25.49;24.60;99818.03;3528568;40;20051;-72
2021/05/09 11:19:44;;;;;;;4.38;1.58;;;;;;;25.56;24.53;99811.16;3531899;40;20081;-72
2021/05/09 11:22:12;;;;;;;3.30;1.70;;;;;;;25.57;24.52;99806.41;3523130;40;20329;-72
2021/05/09 11:24:42;;;;;;;4.15;1.70;;;;;;;25.60;24.38;99807.84;3532584;40;20133;-72
2021/05/09 11:27:11;;;;;;;4.82;2.00;;;;;;;25.66;24.34;99812.41;3530788;40;20047;-72
2021/05/09 11:29:41;;;;;;;3.05;1.70;;;;;;;25.70;24.36;99811.63;3533814;40;20042;-72
2021/05/09 11:32:14;;;;;;;3.72;1.65;;;;;;;25.73;24.30;99811.13;3532923;40;20295;-72
2021/05/09 11:34:49;;;;;;;2.58;1.60;;;;;;;25.78;24.41;99807.53;3539261;40;20051;-72
2021/05/09 11:37:18;;;;;;;3.30;1.75;;;;;;;25.80;24.18;99817.38;3526046;40;20145;-72
2021/05/09 11:39:46;;;;;;;3.38;1.70;;;;;;;25.88;24.29;99816.13;3529936;40;20599;-72